createdAt,value
2019-04-22T00:00:55.979Z,13.20
2019-04-22T00:03:36.098Z,13.20
2019-04-22T00:06:14.915Z,13.20
2019-04-22T00:08:49.159Z,13.20
2019-04-22T00:11:27.258Z,13.20
2019-04-22T00:14:00.685Z,13.20
2019-04-22T00:16:27.525Z,13.10
2019-04-22T00:21:25.768Z,13.00
2019-04-22T00:23:51.762Z,13.00
2019-04-22T00:26:26.070Z,13.00
2019-04-22T00:31:40.501Z,13.00
2019-04-22T00:34:11.141Z,13.00
2019-04-22T00:36:41.699Z,12.90
2019-04-22T00:39:16.393Z,12.90
2019-04-22T00:41:43.817Z,12.80
2019-04-22T00:44:15.374Z,12.80
2019-04-22T00:46:45.974Z,12.70
2019-04-22T00:50:01.592Z,12.70
2019-04-22T00:54:17.047Z,12.60
2019-04-22T00:56:42.319Z,12.60
2019-04-22T00:59:12.760Z,12.50
2019-04-22T01:01:47.085Z,12.50
2019-04-22T01:04:23.035Z,12.50
2019-04-22T01:06:41.628Z,12.50
2019-04-22T01:09:10.796Z,12.50
2019-04-22T01:11:37.781Z,12.40
2019-04-22T01:14:16.027Z,12.40
2019-04-22T01:16:43.111Z,12.30
2019-04-22T01:19:16.630Z,12.40
2019-04-22T01:24:12.121Z,12.40
2019-04-22T01:26:41.783Z,12.40
2019-04-22T01:29:09.447Z,12.30
2019-04-22T01:31:30.852Z,12.30
2019-04-22T01:34:11.409Z,12.20
2019-04-22T01:36:52.812Z,12.20
2019-04-22T01:39:21.530Z,12.10
2019-04-22T01:44:34.461Z,12.00
2019-04-22T01:47:00.050Z,12.00
2019-04-22T01:49:27.313Z,12.00
2019-04-22T01:52:11.434Z,12.00
2019-04-22T01:54:35.676Z,12.00
2019-04-22T01:56:57.117Z,12.00
2019-04-22T01:59:20.697Z,12.10
2019-04-22T02:01:57.412Z,12.10
2019-04-22T02:04:35.079Z,12.00
2019-04-22T02:07:01.929Z,12.00
2019-04-22T02:09:38.384Z,12.00
2019-04-22T02:12:00.212Z,12.00
2019-04-22T02:14:34.075Z,12.00
2019-04-22T02:17:01.327Z,12.00
2019-04-22T02:22:04.553Z,11.90
2019-04-22T02:24:35.266Z,11.90
2019-04-22T02:27:09.250Z,11.90
2019-04-22T02:29:34.732Z,11.80
2019-04-22T02:32:10.624Z,11.70
2019-04-22T02:34:40.190Z,11.70
2019-04-22T02:37:04.899Z,11.50
2019-04-22T02:42:10.656Z,11.30
2019-04-22T02:44:35.851Z,11.20
2019-04-22T02:47:20.560Z,11.20
2019-04-22T02:49:37.477Z,11.10
2019-04-22T02:52:09.394Z,11.00
2019-04-22T02:54:50.998Z,11.00
2019-04-22T02:57:14.055Z,10.90
2019-04-22T02:59:39.307Z,10.80
2019-04-22T03:02:14.418Z,10.80
2019-04-22T03:04:37.227Z,10.80
2019-04-22T03:07:05.538Z,10.70
2019-04-22T03:09:41.069Z,10.70
2019-04-22T03:14:46.019Z,10.60
2019-04-22T03:17:17.705Z,10.60
2019-04-22T03:19:59.266Z,10.50
2019-04-22T03:22:18.632Z,10.50
2019-04-22T03:25:25.746Z,10.50
2019-04-22T03:27:10.645Z,10.50
2019-04-22T03:37:49.446Z,10.40
2019-04-22T03:42:52.493Z,10.30
2019-04-22T03:45:19.258Z,10.30
2019-04-22T03:47:43.581Z,10.30
2019-04-22T03:50:25.239Z,10.30
2019-04-22T03:52:43.065Z,10.30
2019-04-22T03:57:49.676Z,10.30
2019-04-22T04:00:17.836Z,10.20
2019-04-22T04:02:45.825Z,10.20
2019-04-22T04:05:29.644Z,10.10
2019-04-22T04:12:51.182Z,10.10
2019-04-22T04:30:29.062Z,10.20
2019-04-22T04:35:28.242Z,10.30
2019-04-22T04:37:55.166Z,10.40
2019-04-22T04:40:20.757Z,10.40
2019-04-22T04:42:46.021Z,10.40
2019-04-22T04:50:18.263Z,10.30
2019-04-22T04:55:25.840Z,10.20
2019-04-22T04:58:01.047Z,10.20
2019-04-22T05:05:21.113Z,10.40
2019-04-22T05:15:18.387Z,10.90
2019-04-22T05:17:54.985Z,11.00
2019-04-22T05:20:26.943Z,11.10
2019-04-22T05:27:49.181Z,11.40
2019-04-22T05:30:23.565Z,11.50
2019-04-22T05:32:43.035Z,11.60
2019-04-22T05:35:14.334Z,11.70
2019-04-22T05:37:50.008Z,11.80
2019-04-22T05:40:20.260Z,11.90
2019-04-22T05:42:46.155Z,11.90
2019-04-22T05:45:14.880Z,12.00
2019-04-22T05:47:50.935Z,12.00
2019-04-22T05:50:13.189Z,12.10
2019-04-22T05:52:49.809Z,12.20
2019-04-22T05:55:28.507Z,12.20
2019-04-22T05:57:45.669Z,12.30
2019-04-22T06:00:23.122Z,12.40
2019-04-22T06:02:52.963Z,12.50
2019-04-22T06:05:17.155Z,12.60
2019-04-22T06:07:53.809Z,12.70
2019-04-22T06:10:26.315Z,12.80
2019-04-22T06:12:48.020Z,12.90
2019-04-22T06:15:27.158Z,13.10
2019-04-22T06:18:07.670Z,13.20
2019-04-22T06:20:33.846Z,13.20
2019-04-22T06:25:39.370Z,13.30
2019-04-22T06:28:07.154Z,13.40
2019-04-22T06:30:48.963Z,13.50
2019-04-22T06:33:01.138Z,13.60
2019-04-22T06:45:35.353Z,14.30
2019-04-22T06:48:08.032Z,14.40
2019-04-22T06:50:43.440Z,14.60
2019-04-22T06:53:09.003Z,14.60
2019-04-22T06:58:04.888Z,14.90
2019-04-22T07:05:43.406Z,15.20
2019-04-22T07:08:30.357Z,15.30
2019-04-22T07:10:43.435Z,15.40
2019-04-22T07:13:10.992Z,15.50
2019-04-22T07:15:50.362Z,15.70
2019-04-22T07:18:21.210Z,15.80
2019-04-22T07:20:48.087Z,16.00
2019-04-22T07:23:13.766Z,16.10
2019-04-22T07:30:46.062Z,16.40
2019-04-22T07:33:32.478Z,16.50
2019-04-22T07:35:56.133Z,16.60
2019-04-22T07:38:20.578Z,16.70
2019-04-22T07:40:50.357Z,16.80
2019-04-22T07:43:19.900Z,17.00
2019-04-22T07:46:00.676Z,17.10
2019-04-22T07:48:26.479Z,17.20
2019-04-22T07:51:05.550Z,17.40
2019-04-22T07:53:19.302Z,17.50
2019-04-22T07:55:50.826Z,17.70
2019-04-22T07:58:18.729Z,17.70
2019-04-22T08:00:43.784Z,17.80
2019-04-22T08:03:18.372Z,17.90
2019-04-22T08:05:58.547Z,18.10
2019-04-22T08:08:25.809Z,18.30
2019-04-22T08:10:49.957Z,18.50
2019-04-22T08:13:17.236Z,18.60
2019-04-22T08:15:55.321Z,18.80
2019-04-22T08:18:22.178Z,18.90
2019-04-22T08:23:23.754Z,19.10
2019-04-22T08:25:49.258Z,19.20
2019-04-22T08:28:26.303Z,19.30
2019-04-22T08:30:53.586Z,19.40
2019-04-22T08:33:22.115Z,19.60
2019-04-22T08:36:06.066Z,19.60
2019-04-22T08:38:31.298Z,19.70
2019-04-22T08:41:23.009Z,19.80
2019-04-22T08:46:17.077Z,20.20
2019-04-22T08:48:47.834Z,20.30
2019-04-22T08:51:23.412Z,20.50
2019-04-22T08:53:57.418Z,20.70
2019-04-22T08:56:29.479Z,20.90
2019-04-22T08:58:50.717Z,21.00
2019-04-22T09:01:17.733Z,21.20
2019-04-22T09:03:47.040Z,21.40
2019-04-22T09:08:50.194Z,21.70
2019-04-22T09:11:20.177Z,21.80
2019-04-22T09:13:49.850Z,22.00
2019-04-22T09:16:20.711Z,22.20
2019-04-22T09:18:52.731Z,22.30
2019-04-22T09:23:54.016Z,22.50
2019-04-22T09:26:23.945Z,22.70
2019-04-22T09:28:50.960Z,22.70
2019-04-22T09:31:19.544Z,22.80
2019-04-22T09:33:59.327Z,22.90
2019-04-22T09:36:24.356Z,23.00
2019-04-22T09:38:49.231Z,23.20
2019-04-22T09:41:18.711Z,23.20
2019-04-22T09:43:52.350Z,23.40
2019-04-22T09:46:25.004Z,23.50
2019-04-22T09:48:51.863Z,23.60
2019-04-22T09:51:18.942Z,23.70
2019-04-22T09:56:25.821Z,23.90
2019-04-22T09:58:50.801Z,24.00
2019-04-22T10:01:32.112Z,24.20
2019-04-22T10:03:56.488Z,24.30
2019-04-22T10:06:29.327Z,24.40
2019-04-22T10:09:27.187Z,24.50
2019-04-22T10:11:27.920Z,24.50
2019-04-22T10:13:53.714Z,24.50
2019-04-22T10:16:27.100Z,24.50
2019-04-22T10:18:54.463Z,24.60
2019-04-22T10:21:27.262Z,24.80
2019-04-22T10:23:53.267Z,24.80
2019-04-22T10:26:27.868Z,24.80
2019-04-22T10:31:23.824Z,24.70
2019-04-22T10:33:46.498Z,24.70
2019-04-22T10:35:59.362Z,24.60
2019-04-22T10:38:28.399Z,24.60
2019-04-22T10:40:58.363Z,24.60
2019-04-22T10:43:27.575Z,24.60
2019-04-22T10:45:56.149Z,24.70
2019-04-22T10:48:26.104Z,24.70
2019-04-22T10:50:54.832Z,24.80
2019-04-22T10:53:23.819Z,24.90
2019-04-22T10:55:52.376Z,25.10
2019-04-22T10:58:21.057Z,25.40
2019-04-22T11:00:52.255Z,25.40
2019-04-22T11:03:22.327Z,25.50
2019-04-22T11:05:53.788Z,25.50
2019-04-22T11:08:31.975Z,25.70
2019-04-22T11:11:07.160Z,25.90
2019-04-22T11:13:22.224Z,26.00
2019-04-22T11:15:51.038Z,26.00
2019-04-22T11:18:19.932Z,26.00
2019-04-22T11:20:49.534Z,26.10
2019-04-22T11:23:18.699Z,26.20
2019-04-22T11:25:47.988Z,26.20
2019-04-22T11:28:17.807Z,26.30
2019-04-22T11:30:48.119Z,26.40
2019-04-22T11:33:18.291Z,26.50
2019-04-22T11:35:47.959Z,26.60
2019-04-22T11:38:17.251Z,26.80
2019-04-22T11:40:51.734Z,26.90
2019-04-22T11:43:16.438Z,27.00
2019-04-22T11:45:45.155Z,27.10
2019-04-22T11:48:13.662Z,27.20
2019-04-22T11:50:42.199Z,27.30
2019-04-22T11:53:11.096Z,27.30
2019-04-22T11:55:40.610Z,27.50
2019-04-22T11:58:10.589Z,27.80
2019-04-22T12:00:41.008Z,27.80
2019-04-22T12:03:09.624Z,27.80
2019-04-22T12:05:39.622Z,28.00
2019-04-22T12:08:09.263Z,28.10
2019-04-22T12:10:46.890Z,28.20
2019-04-22T12:13:08.127Z,28.10
2019-04-22T12:15:37.303Z,27.90
2019-04-22T12:18:07.048Z,28.00
2019-04-22T12:20:36.859Z,28.20
2019-04-22T12:23:07.399Z,28.40
2019-04-22T12:25:47.915Z,28.90
2019-04-22T12:28:08.981Z,29.50
2019-04-22T12:30:37.494Z,29.90
2019-04-22T12:33:10.273Z,30.40
2019-04-22T12:35:36.984Z,31.00
2019-04-22T12:38:08.628Z,31.60
2019-04-22T12:40:44.726Z,32.20
2019-04-22T12:43:06.672Z,32.60
2019-04-22T12:45:36.345Z,33.20
2019-04-22T12:48:06.252Z,33.60
2019-04-22T12:50:40.240Z,34.00
2019-04-22T12:53:10.614Z,34.30
2019-04-22T12:55:35.654Z,34.40
2019-04-22T12:58:05.324Z,34.50
2019-04-22T13:00:34.434Z,34.50
2019-04-22T13:03:03.120Z,34.30
2019-04-22T13:05:33.291Z,34.30
2019-04-22T13:08:02.080Z,34.60
2019-04-22T13:10:41.683Z,34.70
2019-04-22T13:13:00.950Z,34.90
2019-04-22T13:15:30.715Z,35.40
2019-04-22T13:18:06.129Z,36.10
2019-04-22T13:20:30.433Z,36.40
2019-04-22T13:22:59.059Z,36.60
2019-04-22T13:25:29.962Z,36.70
2019-04-22T13:27:57.738Z,37.20
2019-04-22T13:30:28.280Z,37.80
2019-04-22T13:32:56.893Z,38.30
2019-04-22T13:35:26.169Z,39.10
2019-04-22T13:37:57.233Z,39.20
2019-04-22T13:40:26.517Z,39.00
2019-04-22T13:42:55.599Z,38.30
2019-04-22T13:45:25.549Z,38.30
2019-04-22T13:48:11.194Z,38.90
2019-04-22T13:53:42.966Z,40.40
2019-04-22T13:55:51.365Z,40.30
2019-04-22T13:58:08.249Z,40.10
2019-04-22T14:00:34.230Z,40.00
2019-04-22T14:03:18.264Z,40.40
2019-04-22T14:05:48.823Z,40.80
2019-04-22T14:08:18.457Z,40.40
2019-04-22T14:10:48.417Z,40.80
2019-04-22T14:13:16.993Z,41.50
2019-04-22T14:15:46.590Z,41.80
2019-04-22T14:18:15.185Z,41.50
2019-04-22T14:20:44.968Z,41.80
2019-04-22T14:23:14.305Z,41.90
2019-04-22T14:25:43.787Z,41.90
2019-04-22T14:28:17.369Z,41.90
2019-04-22T14:30:42.634Z,41.70
2019-04-22T14:33:12.160Z,41.50
2019-04-22T14:35:41.597Z,41.40
2019-04-22T14:38:10.199Z,41.80
2019-04-22T14:40:40.921Z,42.00
2019-04-22T14:43:31.723Z,41.90
2019-04-22T14:46:12.318Z,41.70
2019-04-22T14:48:37.340Z,41.30
2019-04-22T14:50:56.288Z,41.10
2019-04-22T14:53:32.314Z,41.00
2019-04-22T14:55:40.371Z,40.70
2019-04-22T14:58:09.111Z,39.60
2019-04-22T15:00:38.184Z,37.90
2019-04-22T15:03:08.187Z,36.30
2019-04-22T15:05:37.309Z,35.10
2019-04-22T15:08:07.071Z,34.00
2019-04-22T15:10:36.064Z,33.50
2019-04-22T15:13:05.457Z,33.30
2019-04-22T15:15:46.960Z,33.10
2019-04-22T15:18:17.545Z,32.70
2019-04-22T15:20:51.004Z,32.60
2019-04-22T15:23:17.948Z,31.90
2019-04-22T15:25:46.475Z,31.40
2019-04-22T15:28:15.395Z,31.00
2019-04-22T15:30:43.965Z,30.50
2019-04-22T15:33:12.562Z,30.20
2019-04-22T15:35:41.143Z,29.80
2019-04-22T15:38:11.141Z,29.40
2019-04-22T15:40:40.691Z,29.10
2019-04-22T15:43:10.841Z,28.90
2019-04-22T15:45:41.108Z,28.70
2019-04-22T15:48:10.274Z,28.60
2019-04-22T15:50:40.538Z,28.50
2019-04-22T15:53:09.764Z,28.40
2019-04-22T15:55:38.970Z,28.30
2019-04-22T15:58:08.066Z,28.10
2019-04-22T16:00:49.077Z,28.00
2019-04-22T16:03:09.121Z,27.80
2019-04-22T16:05:36.950Z,27.60
2019-04-22T16:08:06.693Z,27.30
2019-04-22T16:10:35.799Z,27.10
2019-04-22T16:13:12.548Z,27.10
2019-04-22T16:15:34.531Z,26.90
2019-04-22T16:18:04.796Z,26.80
2019-04-22T16:20:34.349Z,26.70
2019-04-22T16:23:10.453Z,26.50
2019-04-22T16:25:59.148Z,26.40
2019-04-22T16:28:29.116Z,26.40
2019-04-22T16:30:59.479Z,26.30
2019-04-22T16:33:28.226Z,26.20
2019-04-22T16:35:56.659Z,26.10
2019-04-22T16:38:25.094Z,26.10
2019-04-22T16:40:54.728Z,26.10
2019-04-22T16:43:24.609Z,26.10
2019-04-22T16:45:53.764Z,26.00
2019-04-22T16:48:22.747Z,26.00
2019-04-22T16:50:52.681Z,26.10
2019-04-22T16:53:23.204Z,26.10
2019-04-22T16:55:52.860Z,26.00
2019-04-22T16:58:22.980Z,26.00
2019-04-22T17:00:52.517Z,25.90
2019-04-22T17:03:40.575Z,25.90
2019-04-22T17:06:21.445Z,25.80
2019-04-22T17:08:50.907Z,25.70
2019-04-22T17:11:20.207Z,25.60
2019-04-22T17:13:50.180Z,25.50
2019-04-22T17:16:20.083Z,25.40
2019-04-22T17:18:49.952Z,25.40
2019-04-22T17:21:19.653Z,25.30
2019-04-22T17:23:49.665Z,25.30
2019-04-22T17:26:18.830Z,25.30
2019-04-22T17:28:47.420Z,25.20
2019-04-22T17:31:16.429Z,25.10
2019-04-22T17:33:45.011Z,25.00
2019-04-22T17:36:14.016Z,25.00
2019-04-22T17:38:50.857Z,24.90
2019-04-22T17:41:24.381Z,24.80
2019-04-22T17:44:15.277Z,24.70
2019-04-22T17:46:33.648Z,24.60
2019-04-22T17:49:12.277Z,24.50
2019-04-22T17:51:37.381Z,24.40
2019-04-22T17:54:09.448Z,24.30
2019-04-22T17:56:37.534Z,24.20
2019-04-22T17:59:10.221Z,24.10
2019-04-22T18:01:39.741Z,24.00
2019-04-22T18:03:56.921Z,23.80
2019-04-22T18:06:48.883Z,23.70
2019-04-22T18:09:12.387Z,23.60
2019-04-22T18:11:56.285Z,23.50
2019-04-22T18:14:30.053Z,23.40
2019-04-22T18:16:41.352Z,23.30
2019-04-22T18:19:11.587Z,23.20
2019-04-22T18:21:36.440Z,23.10
2019-04-22T18:24:01.392Z,23.00
2019-04-22T18:26:40.169Z,22.90
2019-04-22T18:29:11.515Z,22.70
2019-04-22T18:31:35.614Z,22.60
2019-04-22T18:34:08.797Z,22.60
2019-04-22T18:36:37.213Z,22.50
2019-04-22T18:39:20.650Z,22.30
2019-04-22T18:41:46.720Z,22.20
2019-04-22T18:44:17.956Z,22.10
2019-04-22T18:46:42.071Z,22.00
2019-04-22T18:49:10.953Z,22.00
2019-04-22T18:52:02.890Z,21.90
2019-04-22T18:54:31.045Z,21.80
2019-04-22T18:56:59.181Z,21.70
2019-04-22T18:59:19.501Z,21.60
2019-04-22T19:01:42.010Z,21.50
2019-04-22T19:04:18.886Z,21.40
2019-04-22T19:06:58.899Z,21.30
2019-04-22T19:09:36.174Z,21.20
2019-04-22T19:12:16.550Z,21.10
2019-04-22T19:14:43.719Z,21.00
2019-04-22T19:17:11.922Z,21.00
2019-04-22T19:22:03.976Z,20.80
2019-04-22T19:24:32.340Z,20.70
2019-04-22T19:27:02.292Z,20.60
2019-04-22T19:29:39.236Z,20.60
2019-04-22T19:32:04.055Z,20.50
2019-04-22T19:34:32.267Z,20.50
2019-04-22T19:37:11.102Z,20.40
2019-04-22T19:39:34.136Z,20.40
2019-04-22T19:42:14.958Z,20.30
2019-04-22T19:44:41.139Z,20.20
2019-04-22T19:49:48.118Z,20.10
2019-04-22T19:52:10.901Z,20.00
2019-04-22T19:54:40.876Z,20.00
2019-04-22T19:57:07.018Z,19.90
2019-04-22T19:59:36.380Z,19.80
2019-04-22T20:02:24.960Z,19.80
2019-04-22T20:05:01.815Z,19.70
2019-04-22T20:07:27.783Z,19.60
2019-04-22T20:10:00.157Z,19.50
2019-04-22T20:12:24.717Z,19.50
2019-04-22T20:14:55.706Z,19.40
2019-04-22T20:17:41.508Z,19.40
2019-04-22T20:20:06.371Z,19.30
2019-04-22T20:22:30.245Z,19.20
2019-04-22T20:24:51.320Z,19.20
2019-04-22T20:27:30.291Z,19.10
2019-04-22T20:30:04.718Z,19.10
2019-04-22T20:32:32.591Z,19.00
2019-04-22T20:35:02.703Z,19.00
2019-04-22T20:37:37.102Z,18.90
2019-04-22T20:40:00.843Z,18.80
2019-04-22T20:45:05.408Z,18.70
2019-04-22T20:47:29.172Z,18.60
2019-04-22T20:50:05.477Z,18.50
2019-04-22T20:52:38.689Z,18.40
2019-04-22T20:54:58.677Z,18.40
2019-04-22T20:57:34.631Z,18.30
2019-04-22T20:59:55.863Z,18.30
2019-04-22T21:02:29.071Z,18.20
2019-04-22T21:04:52.045Z,18.10
2019-04-22T21:07:26.724Z,18.10
2019-04-22T21:10:01.222Z,18.00
2019-04-22T21:12:24.940Z,18.00
2019-04-22T21:15:06.811Z,17.90
2019-04-22T21:17:34.899Z,17.80
2019-04-22T21:20:10.088Z,17.80
2019-04-22T21:22:33.849Z,17.70
2019-04-22T21:25:02.173Z,17.60
2019-04-22T21:27:40.808Z,17.60
2019-04-22T21:29:58.237Z,17.50
2019-04-22T21:32:34.518Z,17.50
2019-04-22T21:35:15.264Z,17.40
2019-04-22T21:40:10.702Z,17.30
2019-04-22T21:42:46.027Z,17.20
2019-04-22T21:45:04.739Z,17.10
2019-04-22T21:47:45.927Z,17.10
2019-04-22T21:50:31.009Z,17.10
2019-04-22T21:52:42.560Z,17.00
2019-04-22T21:55:10.191Z,17.00
2019-04-22T21:58:02.618Z,17.00
2019-04-22T22:03:11.328Z,17.00
2019-04-22T22:05:29.713Z,16.90
2019-04-22T22:07:55.864Z,16.90
2019-04-22T22:10:43.354Z,16.90
2019-04-22T22:13:06.298Z,16.90
2019-04-22T22:15:37.696Z,16.80
2019-04-22T22:18:02.280Z,16.70
2019-04-22T22:20:40.543Z,16.70
2019-04-22T22:23:16.100Z,16.70
2019-04-22T22:25:33.633Z,16.70
2019-04-22T22:28:29.410Z,16.70
2019-04-22T22:30:48.473Z,16.60
2019-04-22T22:33:10.496Z,16.60
2019-04-22T22:35:38.285Z,16.50
2019-04-22T22:38:11.975Z,16.40
2019-04-22T22:40:26.361Z,16.40
2019-04-22T22:42:53.471Z,16.30
2019-04-22T22:45:32.748Z,16.30
2019-04-22T22:48:18.858Z,16.20
2019-04-22T22:50:43.129Z,16.20
2019-04-22T22:53:25.599Z,16.20
2019-04-22T22:55:40.550Z,16.20
2019-04-22T22:58:17.704Z,16.10
2019-04-22T23:00:39.456Z,16.10
2019-04-22T23:05:54.985Z,16.00
2019-04-22T23:08:22.708Z,16.00
2019-04-22T23:10:55.609Z,15.90
2019-04-22T23:13:22.106Z,15.90
2019-04-22T23:15:40.510Z,15.90
2019-04-22T23:17:56.176Z,15.90
2019-04-22T23:20:31.024Z,15.80
2019-04-22T23:23:17.277Z,15.90
2019-04-22T23:26:03.857Z,15.80
2019-04-22T23:28:44.581Z,15.80
2019-04-22T23:31:14.372Z,15.70
2019-04-22T23:34:04.254Z,15.70
2019-04-22T23:36:38.370Z,15.70
2019-04-22T23:39:17.155Z,15.60
2019-04-22T23:41:51.129Z,15.60
2019-04-22T23:44:13.485Z,15.50
2019-04-22T23:46:41.183Z,15.50
2019-04-22T23:49:11.843Z,15.50
2019-04-22T23:51:57.568Z,15.40
2019-04-22T23:54:18.737Z,15.40
2019-04-22T23:56:43.456Z,15.40
2019-04-22T23:59:38.673Z,15.30
